Time;durP1;ratioP1;P1;durP2;ratioP2;P2;SDS_P1;SDS_P2;PMS_P1;PMS_P2;Temp;Humidity;BMP_temperature;BMP_pressure;BME280_temperature;BME280_humidity;BME280_pressure;Samples;Min_cycle;Max_cycle;Signal;HPM_P1;HPM_P2
2021/08/05 00:01:59;;;;;;;2.47;2.10;;;;;;;17.78;79.81;96324.56;5033614;28;20213;-71
2021/08/05 00:04:25;;;;;;;3.27;1.80;;;;;;;17.79;79.93;96329.59;5033143;28;20703;-64
2021/08/05 00:06:50;;;;;;;3.17;2.10;;;;;;;17.71;80.30;96322.28;5032942;28;20186;-65
2021/08/05 00:09:15;;;;;;;2.50;1.90;;;;;;;17.67;80.52;96318.59;5032424;28;20307;-65
2021/08/05 00:11:41;;;;;;;1.93;1.70;;;;;;;17.62;81.13;96320.50;5033406;28;20214;-64
2021/08/05 00:14:06;;;;;;;2.13;2.00;;;;;;;17.60;81.20;96320.00;5032833;28;20262;-65
2021/08/05 00:16:32;;;;;;;2.20;2.00;;;;;;;17.69;80.82;96320.97;5033150;28;20266;-64
2021/08/05 00:18:58;;;;;;;2.47;2.07;;;;;;;17.64;81.19;96321.81;5033796;28;20651;-65
2021/08/05 00:21:23;;;;;;;1.90;1.80;;;;;;;17.53;81.47;96322.97;5031545;28;20470;-65
2021/08/05 00:23:49;;;;;;;2.80;2.20;;;;;;;17.61;81.47;96317.06;5031190;28;20186;-65
2021/08/05 00:26:15;;;;;;;2.77;2.10;;;;;;;17.62;81.09;96317.84;5032229;28;20179;-64
2021/08/05 00:28:41;;;;;;;2.30;2.10;;;;;;;17.38;81.52;96323.13;5032003;28;20186;-65
2021/08/05 00:31:06;;;;;;;1.90;1.80;;;;;;;17.40;80.35;96321.75;5032234;28;20203;-65
2021/08/05 00:33:32;;;;;;;1.87;1.77;;;;;;;17.43;79.71;96325.72;5033057;28;20532;-64
2021/08/05 00:35:57;;;;;;;1.70;1.60;;;;;;;17.25;79.55;96326.44;5032768;28;20179;-65
2021/08/05 00:38:23;;;;;;;1.80;1.70;;;;;;;17.36;78.95;96334.00;5032317;28;20302;-66
2021/08/05 00:40:48;;;;;;;2.07;1.87;;;;;;;17.44;79.41;96335.25;5033287;28;20280;-65
2021/08/05 00:43:15;;;;;;;2.50;2.00;;;;;;;17.50;79.69;96334.13;5032086;28;20729;-66
2021/08/05 00:45:40;;;;;;;2.07;1.93;;;;;;;17.49;79.59;96329.91;5032451;28;20219;-65
2021/08/05 00:48:06;;;;;;;2.30;2.10;;;;;;;17.58;79.03;96341.47;5032165;28;20186;-66
2021/08/05 00:50:34;;;;;;;2.17;1.93;;;;;;;17.56;79.38;96338.28;5032846;28;20566;-64
2021/08/05 00:53:00;;;;;;;2.10;1.90;;;;;;;17.59;79.10;96329.00;5031205;28;20187;-65
2021/08/05 00:55:26;;;;;;;1.90;1.80;;;;;;;17.56;79.26;96327.69;5032190;28;20678;-64
2021/08/05 00:57:51;;;;;;;1.73;1.63;;;;;;;17.53;78.46;96319.53;5032780;28;20531;-65
2021/08/05 01:00:17;;;;;;;2.30;2.10;;;;;;;17.48;78.90;96311.63;5032223;28;20197;-65
2021/08/05 01:02:50;;;;;;;2.37;1.87;;;;;;;17.53;78.23;96322.16;5032395;28;20179;-64
2021/08/05 01:05:17;;;;;;;2.10;2.00;;;;;;;17.45;78.29;96318.28;5031677;28;20183;-67
2021/08/05 01:08:15;;;;;;;2.20;2.00;;;;;;;17.48;78.69;96327.53;5032139;28;20530;-64
2021/08/05 01:11:19;;;;;;;2.67;2.30;;;;;;;17.52;78.72;96323.25;5032604;28;20296;-64
2021/08/05 01:14:04;;;;;;;5.53;1.93;;;;;;;17.53;79.05;96320.31;5031423;28;20195;-65
2021/08/05 01:16:32;;;;;;;4.60;2.40;;;;;;;17.55;79.68;96317.38;5032239;28;20174;-66
2021/08/05 01:19:29;;;;;;;2.57;2.27;;;;;;;17.66;79.79;96321.53;5032533;28;20194;-65
2021/08/05 01:22:06;;;;;;;3.53;2.43;;;;;;;17.50;80.87;96315.56;5020207;28;20194;-65
2021/08/05 01:24:36;;;;;;;3.37;2.40;;;;;;;17.43;81.29;96313.28;5032551;28;20186;-64
2021/08/05 01:27:03;;;;;;;3.20;2.60;;;;;;;17.45;81.33;96312.97;5032336;28;20201;-66
2021/08/05 01:29:33;;;;;;;2.40;2.20;;;;;;;17.39;81.72;96317.53;5031795;28;20210;-65
2021/08/05 01:32:00;;;;;;;2.50;2.30;;;;;;;17.39;81.86;96314.09;5032317;28;20236;-65
2021/08/05 01:34:27;;;;;;;3.17;2.30;;;;;;;17.33;82.03;96312.59;5031236;28;20334;-65
2021/08/05 01:36:54;;;;;;;2.70;2.50;;;;;;;17.29;82.15;96308.91;5031953;28;20262;-64
2021/08/05 01:39:19;;;;;;;3.00;2.70;;;;;;;17.27;82.46;96311.84;5029808;28;20222;-65
2021/08/05 01:41:47;;;;;;;3.03;2.47;;;;;;;17.26;82.53;96309.47;5031936;28;20187;-65
2021/08/05 01:44:13;;;;;;;2.73;2.53;;;;;;;17.23;82.41;96302.88;5031195;28;20327;-65
2021/08/05 01:46:39;;;;;;;3.43;2.93;;;;;;;17.17;83.23;96305.84;5031765;28;20269;-64
2021/08/05 01:49:06;;;;;;;2.77;2.50;;;;;;;17.05;83.91;96309.66;5030885;28;20641;-71
2021/08/05 01:51:32;;;;;;;2.50;2.30;;;;;;;17.00;84.35;96303.63;5031342;28;20182;-65
2021/08/05 01:53:58;;;;;;;5.73;3.30;;;;;;;17.10;84.01;96311.50;5031177;28;20179;-64
2021/08/05 01:56:25;;;;;;;3.70;2.80;;;;;;;17.03;84.60;96297.78;5031080;28;20182;-65
2021/08/05 01:58:51;;;;;;;3.73;3.10;;;;;;;16.98;85.24;96303.13;5031921;28;20201;-64
2021/08/05 02:01:18;;;;;;;5.07;2.90;;;;;;;16.83;86.27;96303.25;5030707;28;20194;-65
2021/08/05 02:04:12;;;;;;;3.57;3.07;;;;;;;16.90;86.01;96301.06;5031383;28;20190;-65
2021/08/05 02:07:03;;;;;;;3.20;2.80;;;;;;;16.95;85.67;96296.50;5038957;28;20199;-65
2021/08/05 02:09:33;;;;;;;3.40;3.10;;;;;;;16.83;85.97;96295.31;5030242;28;20756;-65
2021/08/05 02:11:59;;;;;;;3.47;3.10;;;;;;;16.88;86.52;96293.41;5031582;28;20226;-65
2021/08/05 02:14:29;;;;;;;4.57;3.13;;;;;;;16.96;85.83;96297.31;5030571;28;20269;-65
2021/08/05 02:16:55;;;;;;;4.87;2.70;;;;;;;17.05;85.44;96293.00;5031733;28;20213;-65
2021/08/05 02:19:22;;;;;;;4.53;2.83;;;;;;;17.07;85.46;96293.50;5030237;28;20317;-65
2021/08/05 02:21:50;;;;;;;3.47;2.57;;;;;;;17.12;84.94;96290.78;5029442;28;20190;-65
2021/08/05 02:24:17;;;;;;;4.90;3.07;;;;;;;17.16;85.13;96285.75;5029933;28;20189;-66
2021/08/05 02:26:43;;;;;;;3.43;2.80;;;;;;;17.01;85.64;96290.09;5030998;28;20201;-65
2021/08/05 02:29:10;;;;;;;3.07;2.77;;;;;;;16.98;86.12;96293.31;5030967;28;20627;-71
2021/08/05 02:31:36;;;;;;;3.30;3.00;;;;;;;17.11;85.59;96283.16;5031056;28;20191;-66
2021/08/05 02:34:04;;;;;;;3.13;2.83;;;;;;;17.11;85.55;96288.44;5031069;28;20552;-66
2021/08/05 02:36:29;;;;;;;3.83;2.90;;;;;;;17.11;85.35;96289.22;5030360;28;20240;-65
2021/08/05 02:38:55;;;;;;;3.93;2.93;;;;;;;17.08;85.59;96286.34;5030533;28;20606;-66
2021/08/05 02:41:21;;;;;;;5.13;2.97;;;;;;;16.91;86.46;96279.63;5030012;28;20636;-65
2021/08/05 02:43:47;;;;;;;4.77;3.30;;;;;;;16.91;86.89;96287.56;5030565;28;20556;-66
2021/08/05 02:46:14;;;;;;;3.50;3.20;;;;;;;16.99;86.16;96291.47;5030231;28;20190;-66
2021/08/05 02:48:40;;;;;;;3.17;2.80;;;;;;;16.83;87.25;96276.78;5029628;28;20198;-65
2021/08/05 02:51:06;;;;;;;3.83;3.20;;;;;;;16.76;87.52;96278.97;5029736;28;20269;-69
2021/08/05 02:53:32;;;;;;;4.97;3.57;;;;;;;16.77;87.09;96276.03;5029843;28;20197;-65
2021/08/05 02:55:58;;;;;;;3.37;3.07;;;;;;;16.67;87.87;96277.97;5030541;28;20209;-65
2021/08/05 02:58:24;;;;;;;3.07;2.77;;;;;;;16.67;87.61;96267.38;5030721;28;20214;-65
2021/08/05 03:00:49;;;;;;;3.47;3.17;;;;;;;16.58;87.67;96275.09;5030593;28;20213;-65
2021/08/05 03:03:21;;;;;;;3.20;2.90;;;;;;;16.46;88.57;96277.31;5030115;28;20193;-65
2021/08/05 03:05:47;;;;;;;3.43;2.87;;;;;;;16.52;87.97;96266.41;5030680;28;20191;-65
2021/08/05 03:08:12;;;;;;;3.60;3.30;;;;;;;16.38;88.93;96269.97;5029890;28;20592;-65
2021/08/05 03:10:37;;;;;;;3.77;3.47;;;;;;;16.42;88.94;96268.34;5030431;28;20209;-65
2021/08/05 03:13:03;;;;;;;3.30;3.00;;;;;;;16.38;88.61;96273.41;5029778;28;20713;-66
2021/08/05 03:15:29;;;;;;;3.37;3.07;;;;;;;16.33;89.46;96267.38;5029739;28;20619;-65
2021/08/05 03:17:55;;;;;;;3.97;3.57;;;;;;;16.37;89.34;96271.03;5030914;28;20605;-64
2021/08/05 03:20:20;;;;;;;6.03;3.70;;;;;;;16.20;90.29;96269.56;5029006;28;20218;-67
2021/08/05 03:22:45;;;;;;;4.00;3.30;;;;;;;16.37;89.46;96271.81;5029943;28;20270;-64
2021/08/05 03:25:11;;;;;;;6.30;3.30;;;;;;;16.32;89.70;96274.50;5032670;28;20261;-70
2021/08/05 03:27:38;;;;;;;5.00;3.43;;;;;;;16.26;89.95;96266.88;5034107;28;20265;-66
2021/08/05 03:30:06;;;;;;;5.30;3.30;;;;;;;16.20;90.49;96268.75;5034217;28;20578;-65
2021/08/05 03:32:32;;;;;;;4.20;3.17;;;;;;;16.25;90.44;96275.88;5033406;28;20178;-65
2021/08/05 03:34:57;;;;;;;6.23;3.37;;;;;;;16.19;90.65;96270.63;5034489;28;20217;-64
2021/08/05 03:37:23;;;;;;;4.13;3.50;;;;;;;16.18;90.71;96269.03;5033787;28;20632;-64
2021/08/05 03:39:48;;;;;;;5.87;3.37;;;;;;;16.21;90.82;96273.00;5032594;28;20241;-65
2021/08/05 03:42:14;;;;;;;7.03;3.60;;;;;;;16.25;90.46;96267.94;5027691;28;20663;-65
2021/08/05 03:44:39;;;;;;;6.37;3.80;;;;;;;16.21;90.81;96265.84;5032927;28;20210;-65
2021/08/05 03:47:04;;;;;;;4.53;3.30;;;;;;;16.13;91.20;96266.41;5034202;28;20194;-64
2021/08/05 03:49:30;;;;;;;4.43;3.70;;;;;;;16.17;91.57;96275.38;5033235;28;20201;-64
2021/08/05 03:51:55;;;;;;;4.97;3.57;;;;;;;16.15;91.64;96274.88;5034089;28;20197;-64
2021/08/05 03:54:21;;;;;;;5.30;3.77;;;;;;;16.16;91.56;96265.09;5032117;28;20729;-64
2021/08/05 03:56:46;;;;;;;3.97;3.50;;;;;;;16.13;91.96;96270.91;5033223;28;20240;-67
2021/08/05 03:59:11;;;;;;;3.87;3.50;;;;;;;16.22;91.25;96282.47;5033469;28;20195;-71
2021/08/05 04:01:37;;;;;;;3.73;3.40;;;;;;;16.16;91.64;96270.38;5033594;28;20198;-64
2021/08/05 04:04:02;;;;;;;3.83;3.43;;;;;;;16.29;90.67;96272.41;5034174;28;20187;-64
2021/08/05 04:06:27;;;;;;;4.10;3.70;;;;;;;16.42;90.03;96273.63;5032741;28;20540;-64
2021/08/05 04:08:53;;;;;;;4.53;3.87;;;;;;;16.32;90.39;96265.78;5033209;28;20276;-64
2021/08/05 04:11:18;;;;;;;4.63;3.70;;;;;;;16.20;91.36;96271.41;5032965;28;20210;-63
2021/08/05 04:13:44;;;;;;;3.80;3.40;;;;;;;16.13;91.75;96269.06;5033692;28;20277;-65
2021/08/05 04:16:09;;;;;;;6.93;3.63;;;;;;;16.17;91.23;96270.09;5032166;28;20175;-68
2021/08/05 04:18:34;;;;;;;5.37;3.40;;;;;;;16.19;91.68;96259.25;5033207;28;20261;-65
2021/08/05 04:21:00;;;;;;;4.03;3.40;;;;;;;16.25;91.80;96262.66;5032358;28;20194;-65
2021/08/05 04:23:25;;;;;;;4.10;3.53;;;;;;;16.30;91.58;96266.06;5032658;28;20197;-64
2021/08/05 04:25:51;;;;;;;4.20;3.07;;;;;;;16.35;91.45;96271.31;5032077;28;20178;-64
2021/08/05 04:28:16;;;;;;;4.50;3.53;;;;;;;16.47;90.99;96265.66;5032318;28;20266;-65
2021/08/05 04:30:41;;;;;;;5.53;3.73;;;;;;;16.48;91.07;96272.53;5032890;28;20240;-65
2021/08/05 04:33:07;;;;;;;3.60;3.30;;;;;;;16.50;91.07;96276.47;5033485;28;20178;-64
2021/08/05 04:35:32;;;;;;;4.80;4.00;;;;;;;16.61;90.41;96278.00;5031769;28;20404;-65
2021/08/05 04:38:00;;;;;;;4.27;3.40;;;;;;;16.74;90.07;96276.59;5032657;28;20179;-65
2021/08/05 04:40:28;;;;;;;5.70;3.70;;;;;;;16.82;89.55;96283.94;5031669;28;20230;-66
2021/08/05 04:42:53;;;;;;;4.20;3.80;;;;;;;16.98;88.32;96281.94;5032931;28;20189;-66
2021/08/05 04:45:20;;;;;;;3.97;3.60;;;;;;;17.03;88.15;96280.03;5031802;28;20253;-65
2021/08/05 04:48:00;;;;;;;7.20;3.57;;;;;;;17.15;87.47;96281.50;5033197;28;20224;-65
2021/08/05 04:50:33;;;;;;;3.97;3.67;;;;;;;17.21;87.13;96281.19;5016646;28;20537;-65
2021/08/05 04:52:59;;;;;;;3.70;3.40;;;;;;;17.30;86.41;96286.66;5020837;28;20550;-65
2021/08/05 04:55:26;;;;;;;4.87;3.60;;;;;;;17.34;86.30;96283.16;5031781;28;20201;-64
2021/08/05 04:57:59;;;;;;;3.93;3.63;;;;;;;17.45;85.69;96283.81;5033234;28;20214;-65
2021/08/05 05:00:29;;;;;;;4.60;3.70;;;;;;;17.30;86.60;96278.69;5031442;28;20627;-64
2021/08/05 05:02:55;;;;;;;4.53;3.30;;;;;;;17.25;86.78;96271.59;5032692;28;20175;-64
2021/08/05 05:05:22;;;;;;;9.90;3.80;;;;;;;17.26;86.88;96273.19;5031483;28;20232;-65
2021/08/05 05:07:49;;;;;;;4.43;3.93;;;;;;;17.22;86.71;96276.69;5032471;28;20187;-66
2021/08/05 05:10:15;;;;;;;5.10;3.70;;;;;;;17.40;85.84;96268.78;5030186;28;20349;-70
2021/08/05 05:12:41;;;;;;;3.93;3.50;;;;;;;17.47;85.31;96276.41;5032078;28;20191;-65
2021/08/05 05:15:08;;;;;;;4.07;3.67;;;;;;;17.42;85.44;96271.94;5032489;28;20191;-65
2021/08/05 05:17:35;;;;;;;4.80;4.00;;;;;;;17.42;85.27;96274.59;5031776;28;20186;-63
2021/08/05 05:20:00;;;;;;;5.80;3.73;;;;;;;17.47;85.04;96271.09;5027452;28;20190;-63
2021/08/05 05:22:25;;;;;;;5.17;4.20;;;;;;;17.63;84.33;96267.22;5030973;28;20187;-63
2021/08/05 05:24:51;;;;;;;4.63;3.57;;;;;;;17.61;84.10;96264.06;5032400;28;20635;-63
2021/08/05 05:27:16;;;;;;;4.67;3.60;;;;;;;17.59;84.40;96260.09;5031013;28;20659;-70
2021/08/05 05:29:41;;;;;;;6.00;3.90;;;;;;;17.64;84.05;96258.19;5031488;28;20190;-63
2021/08/05 05:32:08;;;;;;;5.47;3.67;;;;;;;17.48;84.83;96255.97;5032138;28;20182;-65
2021/08/05 05:34:33;;;;;;;4.47;3.30;;;;;;;17.52;84.86;96252.47;5031041;28;20175;-62
2021/08/05 05:36:59;;;;;;;3.67;3.23;;;;;;;17.61;84.67;96256.09;5031998;28;20186;-65
2021/08/05 05:39:25;;;;;;;4.00;3.23;;;;;;;17.60;85.08;96269.66;5031378;28;20229;-63
2021/08/05 05:41:50;;;;;;;4.53;3.67;;;;;;;17.71;84.86;96269.25;5032163;28;20183;-63
2021/08/05 05:44:15;;;;;;;5.20;3.10;;;;;;;17.88;83.67;96260.03;5031431;28;20269;-68
2021/08/05 05:46:41;;;;;;;5.07;2.90;;;;;;;17.93;83.21;96263.41;5030513;28;20524;-63
2021/08/05 05:49:07;;;;;;;6.50;3.33;;;;;;;17.83;83.25;96264.31;5031970;28;20186;-62
2021/08/05 05:51:32;;;;;;;4.83;2.97;;;;;;;17.99;82.36;96264.13;5030703;28;20746;-63
2021/08/05 05:53:57;;;;;;;3.47;2.90;;;;;;;18.07;82.09;96264.25;5029934;28;20183;-63
2021/08/05 05:56:23;;;;;;;3.50;2.97;;;;;;;18.16;81.46;96259.91;5030409;28;20667;-64
2021/08/05 05:58:48;;;;;;;3.47;3.03;;;;;;;18.12;80.97;96260.75;5030608;28;20261;-63
2021/08/05 06:01:14;;;;;;;3.80;3.07;;;;;;;18.09;81.43;96262.13;5030828;28;20940;-67
2021/08/05 06:03:39;;;;;;;5.13;2.53;;;;;;;18.02;81.94;96259.03;5031110;28;20244;-64
2021/08/05 06:06:04;;;;;;;3.83;3.07;;;;;;;18.10;81.61;96269.00;5031344;28;20285;-64
2021/08/05 06:08:30;;;;;;;3.03;2.70;;;;;;;18.17;81.01;96258.00;5030881;28;20206;-64
2021/08/05 06:10:55;;;;;;;3.33;2.40;;;;;;;18.08;81.14;96260.53;5030831;28;20240;-64
2021/08/05 06:13:20;;;;;;;2.90;2.70;;;;;;;18.10;80.99;96263.69;5029816;28;20535;-63
2021/08/05 06:15:46;;;;;;;3.40;2.80;;;;;;;17.88;81.84;96250.22;5030661;28;20191;-63
2021/08/05 06:18:11;;;;;;;3.73;2.70;;;;;;;17.99;81.57;96256.16;5031006;28;20280;-63
2021/08/05 06:20:36;;;;;;;3.17;2.80;;;;;;;18.03;81.18;96252.66;5028361;28;20985;-64
2021/08/05 06:23:03;;;;;;;3.03;2.73;;;;;;;18.31;80.50;96256.22;5031071;28;20182;-63
2021/08/05 06:25:29;;;;;;;5.07;2.72;;;;;;;18.68;78.84;96255.41;5030310;28;20624;-64
2021/08/05 06:27:54;;;;;;;3.65;2.25;;;;;;;19.04;77.15;96248.41;5030718;28;20177;-65
2021/08/05 06:30:20;;;;;;;3.07;2.40;;;;;;;19.32;75.93;96246.56;5030123;28;20198;-64
2021/08/05 06:32:46;;;;;;;2.50;2.30;;;;;;;19.44;74.39;96251.41;5031292;28;20262;-62
2021/08/05 06:35:11;;;;;;;2.93;2.30;;;;;;;19.68;73.16;96254.63;5031172;28;20273;-64
2021/08/05 06:37:37;;;;;;;2.38;2.13;;;;;;;20.01;72.32;96249.16;5030351;28;20194;-62
2021/08/05 06:40:05;;;;;;;2.67;2.28;;;;;;;20.32;70.32;96250.91;5031141;28;20227;-64
2021/08/05 06:42:32;;;;;;;5.88;1.90;;;;;;;20.63;67.91;96253.59;5028538;28;20183;-66
2021/08/05 06:44:57;;;;;;;2.50;2.05;;;;;;;20.86;66.74;96253.59;5030793;28;20182;-66
2021/08/05 06:47:23;;;;;;;4.75;1.65;;;;;;;21.01;65.13;96256.66;5030070;28;20258;-66
2021/08/05 06:49:48;;;;;;;2.05;1.85;;;;;;;21.44;64.31;96248.09;5027280;28;20202;-66
2021/08/05 06:52:13;;;;;;;1.90;1.70;;;;;;;21.67;63.41;96251.47;5031912;28;20542;-66
2021/08/05 06:54:39;;;;;;;2.58;1.75;;;;;;;22.12;60.81;96255.50;5030068;28;20182;-66
2021/08/05 06:57:05;;;;;;;2.47;1.88;;;;;;;22.43;59.39;96247.31;5030420;28;20591;-67
2021/08/05 06:59:30;;;;;;;2.17;1.70;;;;;;;22.50;57.85;96253.00;5032794;28;20193;-67
2021/08/05 07:01:55;;;;;;;2.03;1.85;;;;;;;22.38;58.74;96260.84;5035083;28;20255;-67
2021/08/05 07:04:21;;;;;;;3.28;1.95;;;;;;;22.58;58.03;96270.88;5033868;28;20189;-67
2021/08/05 07:06:46;;;;;;;1.83;1.73;;;;;;;22.67;57.76;96262.88;5034932;28;20654;-67
2021/08/05 07:09:11;;;;;;;1.70;1.60;;;;;;;22.82;56.98;96257.06;5033043;28;20243;-67
2021/08/05 07:11:37;;;;;;;2.10;1.67;;;;;;;22.95;57.08;96258.78;5033428;28;20202;-68
2021/08/05 07:14:02;;;;;;;3.10;1.73;;;;;;;22.96;56.56;96254.97;5034489;28;20183;-67
2021/08/05 07:16:28;;;;;;;2.60;1.80;;;;;;;22.96;57.13;96256.88;5033535;28;20186;-68
2021/08/05 07:18:53;;;;;;;2.10;1.88;;;;;;;23.13;56.55;96254.13;5031313;28;20195;-68
2021/08/05 07:21:19;;;;;;;1.95;1.70;;;;;;;23.15;55.99;96262.63;5034123;28;20214;-74
2021/08/05 07:23:44;;;;;;;2.58;1.75;;;;;;;23.21;55.68;96264.03;5033402;28;20558;-67
2021/08/05 07:26:10;;;;;;;2.55;1.67;;;;;;;23.37;55.41;96259.72;5034485;28;20183;-70
2021/08/05 07:28:36;;;;;;;2.25;1.95;;;;;;;23.47;54.80;96253.25;5033185;28;20249;-69
2021/08/05 07:31:01;;;;;;;2.90;2.10;;;;;;;23.45;54.75;96264.25;5034601;28;20206;-67
2021/08/05 07:33:27;;;;;;;2.00;1.60;;;;;;;23.55;54.75;96261.25;5033590;28;20186;-68
2021/08/05 07:35:52;;;;;;;2.97;1.88;;;;;;;23.75;54.80;96248.22;5034379;28;20186;-68
2021/08/05 07:38:17;;;;;;;3.35;1.73;;;;;;;23.88;54.27;96244.53;5033544;28;20544;-72
2021/08/05 07:40:43;;;;;;;1.88;1.70;;;;;;;23.86;54.42;96244.06;5033990;28;20570;-69
2021/08/05 07:43:08;;;;;;;4.80;2.10;;;;;;;23.86;54.12;96246.75;5032215;28;20552;-68
2021/08/05 07:45:34;;;;;;;2.55;1.63;;;;;;;23.88;53.54;96239.19;5032759;28;20187;-68
2021/08/05 07:48:00;;;;;;;1.67;1.58;;;;;;;24.04;52.84;96229.47;5034273;28;20234;-67
2021/08/05 07:50:26;;;;;;;2.30;2.10;;;;;;;24.29;51.95;96244.59;5033213;28;20245;-67
2021/08/05 07:52:51;;;;;;;3.08;2.70;;;;;;;24.49;51.18;96231.50;5033258;28;20190;-65
2021/08/05 07:55:17;;;;;;;1.80;1.70;;;;;;;24.48;50.36;96230.72;5033791;28;20218;-69
2021/08/05 07:57:42;;;;;;;2.50;1.70;;;;;;;24.03;52.28;96225.22;5032962;28;20183;-65
2021/08/05 08:00:09;;;;;;;2.03;1.80;;;;;;;24.15;52.45;96227.19;5033757;28;20640;-65
2021/08/05 08:02:35;;;;;;;2.65;1.92;;;;;;;24.02;51.94;96227.09;5033096;28;20194;-65
2021/08/05 08:05:00;;;;;;;2.10;1.90;;;;;;;24.08;51.84;96226.91;5033496;28;20189;-65
2021/08/05 08:07:26;;;;;;;1.92;1.83;;;;;;;24.25;51.09;96232.94;5032910;28;20566;-65
2021/08/05 08:09:51;;;;;;;2.58;1.92;;;;;;;24.04;52.60;96229.47;5032654;28;20202;-67
2021/08/05 08:12:17;;;;;;;1.80;1.70;;;;;;;24.14;52.56;96231.75;5033473;28;20187;-72
2021/08/05 08:14:42;;;;;;;2.00;1.90;;;;;;;23.86;52.57;96236.03;5033021;28;20548;-67
2021/08/05 08:17:08;;;;;;;2.15;1.85;;;;;;;23.32;54.33;96243.84;5033576;28;20186;-67
2021/08/05 08:19:33;;;;;;;2.25;2.05;;;;;;;23.31;54.26;96238.81;5030496;28;20313;-68
2021/08/05 08:22:00;;;;;;;2.55;1.90;;;;;;;23.20;53.90;96241.06;5033500;28;20640;-67
2021/08/05 08:24:27;;;;;;;1.75;1.65;;;;;;;23.61;52.91;96240.44;5032561;28;20182;-68
2021/08/05 08:26:52;;;;;;;1.75;1.55;;;;;;;23.89;52.15;96230.84;5033419;28;20704;-68
2021/08/05 08:29:18;;;;;;;2.20;2.00;;;;;;;24.17;51.64;96225.75;5032304;28;20191;-72
2021/08/05 08:31:43;;;;;;;2.63;2.00;;;;;;;24.35;51.09;96227.19;5032900;28;20210;-68
2021/08/05 08:34:09;;;;;;;2.17;1.65;;;;;;;24.33;51.53;96229.44;5033097;28;20198;-65
2021/08/05 08:36:34;;;;;;;2.00;1.80;;;;;;;24.06;51.93;96221.13;5032749;28;20190;-66
2021/08/05 08:39:00;;;;;;;2.00;1.50;;;;;;;24.21;51.75;96225.91;5033391;28;20233;-66
2021/08/05 08:41:25;;;;;;;1.92;1.83;;;;;;;24.54;49.87;96220.56;5032101;28;20198;-68
2021/08/05 08:43:51;;;;;;;2.05;1.80;;;;;;;24.51;49.88;96221.25;5033435;28;20270;-66
2021/08/05 08:46:20;;;;;;;2.08;1.70;;;;;;;24.61;49.81;96221.63;5033205;28;20191;-70
2021/08/05 08:48:51;;;;;;;1.80;1.70;;;;;;;24.31;49.54;96220.94;5033198;28;20214;-66
2021/08/05 08:51:17;;;;;;;1.60;1.50;;;;;;;24.64;48.99;96225.53;5031832;28;20198;-70
2021/08/05 08:53:43;;;;;;;3.17;1.85;;;;;;;25.15;47.23;96224.22;5031721;28;20225;-66
2021/08/05 08:56:09;;;;;;;1.92;1.70;;;;;;;25.22;47.82;96225.25;5033047;28;20195;-67
2021/08/05 08:58:36;;;;;;;1.92;1.70;;;;;;;25.22;48.18;96229.81;5032238;28;20269;-66
2021/08/05 09:01:01;;;;;;;2.15;1.88;;;;;;;25.18;48.52;96229.72;5032540;28;20918;-66
2021/08/05 09:03:28;;;;;;;2.22;2.03;;;;;;;25.15;48.88;96219.66;5031658;28;20196;-66
2021/08/05 09:05:53;;;;;;;1.80;1.70;;;;;;;24.53;50.64;96216.31;5033334;28;20195;-66
2021/08/05 09:08:19;;;;;;;2.08;1.70;;;;;;;24.27;51.50;96222.69;5032704;28;20183;-71
2021/08/05 09:10:46;;;;;;;2.67;1.88;;;;;;;24.42;50.67;96213.28;5032250;28;20217;-66
2021/08/05 09:13:15;;;;;;;2.13;1.98;;;;;;;23.89;51.05;96216.66;5032475;28;20213;-67
2021/08/05 09:15:45;;;;;;;1.90;1.70;;;;;;;23.55;51.95;96215.78;5030916;28;20280;-66
2021/08/05 09:18:31;;;;;;;3.78;2.00;;;;;;;23.15;52.49;96206.47;5025730;28;20245;-66
2021/08/05 09:21:25;;;;;;;2.33;2.13;;;;;;;22.58;54.75;96208.66;5030705;28;20190;-66
2021/08/05 09:24:05;;;;;;;1.67;1.58;;;;;;;22.67;55.01;96212.09;5031556;28;20195;-66
2021/08/05 09:26:30;;;;;;;2.17;1.80;;;;;;;22.97;54.54;96215.66;5031693;28;20185;-66
2021/08/05 09:29:06;;;;;;;2.08;1.52;;;;;;;23.15;54.23;96211.81;5032233;28;20190;-66
2021/08/05 09:31:33;;;;;;;1.75;1.65;;;;;;;23.31;54.02;96209.41;5030820;28;20197;-66
2021/08/05 09:34:09;;;;;;;1.95;1.77;;;;;;;23.36;53.14;96211.88;5022869;28;20190;-66
2021/08/05 09:36:35;;;;;;;2.88;1.90;;;;;;;23.42;52.67;96208.72;5030621;28;20540;-67
2021/08/05 09:39:13;;;;;;;2.40;1.98;;;;;;;23.45;53.35;96210.75;5031435;28;20552;-66
2021/08/05 09:41:56;;;;;;;2.00;1.85;;;;;;;23.23;53.72;96208.34;5031180;28;20421;-66
2021/08/05 09:44:22;;;;;;;1.60;1.50;;;;;;;23.30;53.01;96205.94;5031018;28;20174;-70
2021/08/05 09:47:01;;;;;;;1.25;1.25;;;;;;;23.80;51.22;96197.19;5030493;28;20269;-66
2021/08/05 09:49:29;;;;;;;5.55;1.30;;;;;;;24.15;48.48;96205.75;5031176;28;20206;-66
2021/08/05 09:51:55;;;;;;;1.25;1.25;;;;;;;24.25;48.41;96203.50;5031949;28;20698;-66
2021/08/05 09:54:21;;;;;;;1.25;1.15;;;;;;;24.41;47.72;96192.94;5030672;28;20179;-71
2021/08/05 09:56:55;;;;;;;1.38;1.27;;;;;;;24.76;46.13;96196.06;5031840;28;20191;-66
2021/08/05 09:59:21;;;;;;;1.45;1.23;;;;;;;24.99;45.83;96191.91;5031185;28;20514;-72
2021/08/05 10:02:01;;;;;;;1.40;1.30;;;;;;;24.68;46.23;96184.34;5030278;28;20201;-67
2021/08/05 10:04:27;;;;;;;1.42;1.33;;;;;;;24.76;47.05;96188.81;5031129;28;20232;-67
2021/08/05 10:06:58;;;;;;;2.28;1.30;;;;;;;24.70;46.38;96190.13;5031408;28;20183;-66
2021/08/05 10:09:23;;;;;;;0.90;0.90;;;;;;;24.77;45.64;96186.91;5030946;28;20644;-69
2021/08/05 10:11:49;;;;;;;1.63;1.50;;;;;;;24.92;45.73;96188.97;5029823;28;20248;-67
2021/08/05 10:14:23;;;;;;;1.23;1.20;;;;;;;25.01;44.95;96189.69;5031250;28;20198;-65
2021/08/05 10:16:51;;;;;;;1.25;1.15;;;;;;;24.82;45.60;96192.06;5031683;28;20224;-66
2021/08/05 10:19:19;;;;;;;2.72;1.10;;;;;;;25.13;45.30;96175.50;5029287;28;20601;-66
2021/08/05 10:21:46;;;;;;;1.00;1.00;;;;;;;25.02;46.17;96185.09;5030786;28;20274;-65
2021/08/05 10:24:13;;;;;;;1.02;1.02;;;;;;;25.76;44.32;96178.59;5031397;28;20195;-66
2021/08/05 10:26:40;;;;;;;1.38;1.27;;;;;;;26.23;43.74;96165.44;5030425;28;21086;-66
2021/08/05 10:29:05;;;;;;;1.08;1.05;;;;;;;26.42;43.28;96170.94;5031194;28;20182;-66
2021/08/05 10:31:32;;;;;;;1.52;1.42;;;;;;;26.70;42.38;96173.59;5030190;28;20555;-67
2021/08/05 10:33:57;;;;;;;1.30;1.20;;;;;;;26.49;41.59;96169.22;5029276;28;20182;-66
2021/08/05 10:36:23;;;;;;;0.98;0.98;;;;;;;26.33;42.24;96168.41;5030660;28;20512;-71
2021/08/05 10:38:49;;;;;;;2.05;1.23;;;;;;;26.48;42.33;96154.22;5030762;28;20648;-68
2021/08/05 10:41:15;;;;;;;1.27;1.17;;;;;;;26.09;43.30;96152.34;5030929;28;20333;-66
2021/08/05 10:43:41;;;;;;;1.65;1.15;;;;;;;26.09;43.65;96150.44;5014249;28;20209;-66
2021/08/05 10:46:08;;;;;;;0.80;0.80;;;;;;;26.43;43.19;96151.78;5030263;28;20190;-66
2021/08/05 10:48:35;;;;;;;1.33;0.88;;;;;;;26.87;42.10;96154.44;5029760;28;20214;-66
2021/08/05 10:51:01;;;;;;;1.38;0.98;;;;;;;27.08;40.93;96152.31;5030999;28;20203;-66
2021/08/05 10:53:32;;;;;;;0.90;0.90;;;;;;;26.89;39.56;96139.56;5029447;28;20193;-67
2021/08/05 10:56:18;;;;;;;0.73;0.73;;;;;;;27.07;40.14;96144.59;5031026;28;20273;-64
2021/08/05 10:59:12;;;;;;;1.85;0.80;;;;;;;27.31;39.65;96139.00;5030272;28;20178;-65
2021/08/05 11:01:51;;;;;;;0.85;0.85;;;;;;;27.42;39.92;96134.63;5017143;28;20195;-66
2021/08/05 11:04:34;;;;;;;4.68;1.00;;;;;;;27.57;39.23;96131.16;5014909;28;20639;-67
2021/08/05 11:07:29;;;;;;;0.90;0.90;;;;;;;27.21;40.00;96137.63;5017095;28;20272;-66
2021/08/05 11:10:14;;;;;;;1.10;1.10;;;;;;;26.17;41.86;96135.31;5030383;28;20210;-66
2021/08/05 11:12:48;;;;;;;1.20;1.10;;;;;;;26.18;42.24;96125.34;5028683;28;20198;-66
2021/08/05 11:15:23;;;;;;;1.00;1.00;;;;;;;25.85;43.58;96121.00;5030224;28;20685;-66
2021/08/05 11:18:16;;;;;;;1.08;1.00;;;;;;;25.73;43.92;96118.34;5019144;28;20206;-66
2021/08/05 11:20:50;;;;;;;1.00;1.00;;;;;;;25.71;43.63;96123.25;5021468;28;20236;-66
2021/08/05 11:23:24;;;;;;;0.88;0.80;;;;;;;25.88;43.12;96112.25;5030333;28;20186;-67
2021/08/05 11:25:50;;;;;;;1.02;0.80;;;;;;;25.48;42.78;96112.19;5029803;28;20182;-65
2021/08/05 11:28:31;;;;;;;0.90;0.90;;;;;;;26.24;41.52;96115.94;5029838;28;20205;-66
2021/08/05 11:31:01;;;;;;;1.08;0.70;;;;;;;26.56;40.77;96100.63;5029317;28;20214;-65
2021/08/05 11:33:42;;;;;;;1.42;0.70;;;;;;;26.28;41.25;96108.75;5028967;28;20179;-71
2021/08/05 11:36:20;;;;;;;0.80;0.80;;;;;;;26.60;41.02;96110.34;5030158;28;20183;-66
2021/08/05 11:38:58;;;;;;;0.95;0.90;;;;;;;27.20;40.23;96109.13;5018574;28;20205;-66